MAN weather

Manchester Airport
Manchester, England, United Kingdom

Public forecast

Using degrees Celsius for public forecast. Weather courtesy of forecast.io.

METAR (pilot weather report)

Retrieved 2019/03/20 06:20 UTC (28 minutes ago):

EGCC 200620Z AUTO VRB02KT 9999 OVC010 08/08 Q1030 TEMPO BKN025

TAF (pilot weather forecast)

Retrieved 2019/03/20 06:00 UTC (48 minutes ago):

TAF EGCC 200457Z 2006/2112 22008KT 9999 BKN025 TEMPO 2006/2010 BKN014 PROB30 TEMPO 2006/2009 4000 BR BKN008 TEMPO 2100/2112 BKN014 PROB30 TEMPO 2103/2112 BKN008